Cliff Park, New Jersey
Current Conditions -  °F | °C
As of 8:51 AM on Tuesday 21 Oct 2014 (Local Time) from KNYC Reporting Station
Few Clouds Few Clouds  
Wind Chill: 58°   Ceiling: Unl
Heat Index: 58°   Visibility: 10mi
Dew Point: 46°   Wind: 5mph
Humidity: 65%   Direction: 110°ESE
Pressure: 29.92"   Gusts: NA
Location:  40.822°N, 73.988°W
Report Text: KNYC 211251Z AUTO 11004KT 10SM FEW100 14/08 A2992 RMK AO2 SLP123 T01440078 $
Loading
Personal Weather Stations






























Interactive Weather Map
Tropical Storm Tracking
New forecast layout! Learn more

10-Day Weather Forecast

Advertisements
Track Severe Weather on mobile